Main page
METAR-TAF:

METAR-TAF

Airports :

Island Lake Airport

Island Lake, Manitoba, Canada

latitude: 53-51N, longitude: 094-39W, elevation: 237 m

Current weather observation

The report was made 1 hour and 8 minutes ago, at 06:00 UTC
Wind 8 kt from the East/Southeast, varying between East and South/Southwest
Temperature -2°C
Humidity 46%
Pressure 1008 hPa
Visibility: 14.5 km
Clear sky

METAR: CYIV 220600Z AUTO 12008KT 100V200 9SM CLR M02/M12 A2976 RMK SLP096

Time: 02:08 (07:08 UTC)

Forecast

The report was made 28 minutes ago, at 06:40 UTC
Forecast valid from 22 at 07 UTC to 22 at 19 UTC
Wind 8 kt from the East
Visibility: 10 km
Clear sky
Becoming
from 22 at 16 UTC to 22 at 18 UTC
Wind 8 kt from the Northeast

TAF: CYIV 220640Z 2207/2219 10008KT P6SM SKC BECMG 2216/2218 05008KT RMK FCST BASED ON AUTO OBS. NXT FCST BY 221300Z

Weather observations and forecasts of more than 4000 airports (METAR and TAF reports).

The available stations are represented by yellow and red dots on the map.

Hover mouse over dot to see the name of the station.

Then click to see weather observations and forecasts.

To change the map : click on the green buttons with a black cross to zoom in, on the green button with a dash to zoom out, or on the green arrows for adjacent maps.


METAR-TAF: